Auburn, IN (46706)

03:56 AM EDT die 26o April, anno 2017 (GMT -0400)
CR 19 and 40 | | Change Station

Elev 889 ft 41.38 °N, 85.10 °W | Updated 5 minutes ago

Serena
Serena
58.3 °F
Feels Like 58.3 °F
N
2.0
Ventus Variabilis Ventus from Magis Auster quam Eurus
Gusts 5.0 mph

Hodie
High -- | Low -- °F
--% Chance of Precip.
Yesterday
High -- | Low -- °F
Precip. -- in
Pressio 29.66 in
Visibilitas 10.0 milia passuum
Clouds Serena
Frigus in quo Ros apparet 54 °F
Umor 86%
Rainfall 0.00 in
Snow Depth Not available.
6:43 AM 8:32 PM
Waning Crescent, 0% visible
METAR KGWB 260735Z AUTO 00000KT 10SM CLR 15/11 A2966 RMK AO2
Pressio 29.66 in
Visibilitas 10.0 milia passuum
Clouds Serena
Frigus in quo Ros apparet 54 °F
Umor 86%
Rainfall 0.00 in
Snow Depth Not available.
6:43 AM 8:32 PM
Waning Crescent, 0% visible
METAR KGWB 260735Z AUTO 00000KT 10SM CLR 15/11 A2966 RMK AO2

Get Severe Weather Alerts

Thanks for signing up!

Be on the lookout for a verification email in your inbox.

You'll start receiving the daily forecast at 8 AM.

×

10-Day Weather Forecast

Almanac

Astronomy

Apr. 26, 2017 Rise Set
Actual Time
Civil Twilight
Nautical Twilight
Astronomical Twilight
Moon
Length Of Visible Light
Length of Day
Tomorrow will be .
, % of the Moon is Illuminated

Today's Extremes

State Highs State Lows

Community

WunderPhotos

WunderBlog® & News

Nearby

Air Quality

  Air Quality AQ Index Pollutant
Not available.

Snow Depth

Station Depth Elevation

Earthquake Activity

City Distance Mag. Time & Date
Minimum magnitude displayed is 2.5.

Coastal Water Temperatures

Locus Calor

Stations

Nearby Weather Stations

Station Location Temp Frigus Venti Frigus in quo Ros apparet Umor Ventus Precip. Elev Renovata Type
                   

Watches & Warnings

There are currently no watches in effect.